sensor_id;sensor_type;location;lat;lon;timestamp;temperature;humidity
38239;DHT22;24035;48.900;9.188;2023-02-25T00:00:54;5.00;99.90
38239;DHT22;24035;48.900;9.188;2023-02-25T00:03:29;5.00;99.90
38239;DHT22;24035;48.900;9.188;2023-02-25T00:06:27;5.10;1.00
38239;DHT22;24035;48.900;9.188;2023-02-25T00:09:05;5.10;1.00
38239;DHT22;24035;48.900;9.188;2023-02-25T00:11:52;5.10;1.00
38239;DHT22;24035;48.900;9.188;2023-02-25T00:14:33;5.10;1.00
38239;DHT22;24035;48.900;9.188;2023-02-25T00:17:11;5.10;1.00
38239;DHT22;24035;48.900;9.188;2023-02-25T00:23:01;5.00;1.00
38239;DHT22;24035;48.900;9.188;2023-02-25T00:25:41;5.10;1.00
38239;DHT22;24035;48.900;9.188;2023-02-25T00:28:42;5.00;1.00
38239;DHT22;24035;48.900;9.188;2023-02-25T00:31:24;4.90;1.00
38239;DHT22;24035;48.900;9.188;2023-02-25T00:34:09;5.00;1.00
38239;DHT22;24035;48.900;9.188;2023-02-25T00:36:37;5.00;1.00
38239;DHT22;24035;48.900;9.188;2023-02-25T00:39:21;5.00;1.00
38239;DHT22;24035;48.900;9.188;2023-02-25T00:41:55;5.00;1.00
38239;DHT22;24035;48.900;9.188;2023-02-25T00:44:36;5.00;1.00
38239;DHT22;24035;48.900;9.188;2023-02-25T00:47:12;5.00;1.00
38239;DHT22;24035;48.900;9.188;2023-02-25T00:49:49;4.90;1.00
38239;DHT22;24035;48.900;9.188;2023-02-25T00:52:32;4.90;1.00
38239;DHT22;24035;48.900;9.188;2023-02-25T00:55:06;4.90;37.50
38239;DHT22;24035;48.900;9.188;2023-02-25T00:57:57;4.90;1.00
38239;DHT22;24035;48.900;9.188;2023-02-25T01:00:53;4.90;1.00
38239;DHT22;24035;48.900;9.188;2023-02-25T01:03:52;4.80;1.00
38239;DHT22;24035;48.900;9.188;2023-02-25T01:06:43;4.90;1.00
38239;DHT22;24035;48.900;9.188;2023-02-25T01:09:15;4.90;1.00
38239;DHT22;24035;48.900;9.188;2023-02-25T01:12:09;4.90;1.00
38239;DHT22;24035;48.900;9.188;2023-02-25T01:15:02;4.90;1.00
38239;DHT22;24035;48.900;9.188;2023-02-25T01:17:38;4.80;1.00
38239;DHT22;24035;48.900;9.188;2023-02-25T01:20:17;4.90;1.00
38239;DHT22;24035;48.900;9.188;2023-02-25T01:23:10;4.90;1.00
38239;DHT22;24035;48.900;9.188;2023-02-25T01:25:45;4.90;1.00
38239;DHT22;24035;48.900;9.188;2023-02-25T01:28:28;4.90;1.00
38239;DHT22;24035;48.900;9.188;2023-02-25T01:34:20;4.80;1.00
38239;DHT22;24035;48.900;9.188;2023-02-25T01:36:56;4.80;1.00
38239;DHT22;24035;48.900;9.188;2023-02-25T01:39:33;4.80;1.00
38239;DHT22;24035;48.900;9.188;2023-02-25T01:42:14;4.80;1.00
38239;DHT22;24035;48.900;9.188;2023-02-25T01:48:04;4.80;1.00
38239;DHT22;24035;48.900;9.188;2023-02-25T01:51:00;4.80;1.00
38239;DHT22;24035;48.900;9.188;2023-02-25T01:54:00;4.90;1.00
38239;DHT22;24035;48.900;9.188;2023-02-25T01:56:39;4.90;1.00
38239;DHT22;24035;48.900;9.188;2023-02-25T01:59:17;4.90;1.00
38239;DHT22;24035;48.900;9.188;2023-02-25T02:01:57;4.80;1.00
38239;DHT22;24035;48.900;9.188;2023-02-25T02:04:32;4.90;1.00
38239;DHT22;24035;48.900;9.188;2023-02-25T02:07:16;4.90;1.00
38239;DHT22;24035;48.900;9.188;2023-02-25T02:09:48;4.80;1.00
38239;DHT22;24035;48.900;9.188;2023-02-25T02:13:03;4.80;1.00
38239;DHT22;24035;48.900;9.188;2023-02-25T02:15:41;4.70;1.00
38239;DHT22;24035;48.900;9.188;2023-02-25T02:18:14;4.80;1.00
38239;DHT22;24035;48.900;9.188;2023-02-25T02:21:10;4.70;1.00
38239;DHT22;24035;48.900;9.188;2023-02-25T02:45:37;4.70;1.00
38239;DHT22;24035;48.900;9.188;2023-02-25T02:48:15;4.70;1.00
38239;DHT22;24035;48.900;9.188;2023-02-25T02:50:49;4.70;1.00
38239;DHT22;24035;48.900;9.188;2023-02-25T02:53:28;4.70;1.00
38239;DHT22;24035;48.900;9.188;2023-02-25T02:55:58;4.70;1.00
38239;DHT22;24035;48.900;9.188;2023-02-25T02:58:31;4.70;1.00
38239;DHT22;24035;48.900;9.188;2023-02-25T03:01:04;4.60;1.00
38239;DHT22;24035;48.900;9.188;2023-02-25T03:03:35;4.60;1.00
38239;DHT22;24035;48.900;9.188;2023-02-25T03:06:07;4.60;1.00
38239;DHT22;24035;48.900;9.188;2023-02-25T03:08:38;4.60;1.00
38239;DHT22;24035;48.900;9.188;2023-02-25T03:11:06;4.50;1.00
38239;DHT22;24035;48.900;9.188;2023-02-25T03:13:31;4.50;1.00
38239;DHT22;24035;48.900;9.188;2023-02-25T03:15:59;4.40;1.00
38239;DHT22;24035;48.900;9.188;2023-02-25T03:18:46;4.40;1.00
38239;DHT22;24035;48.900;9.188;2023-02-25T03:21:20;4.50;1.00
38239;DHT22;24035;48.900;9.188;2023-02-25T03:23:47;4.40;1.00
38239;DHT22;24035;48.900;9.188;2023-02-25T03:26:27;4.40;1.00
38239;DHT22;24035;48.900;9.188;2023-02-25T03:28:53;4.30;1.00
38239;DHT22;24035;48.900;9.188;2023-02-25T03:31:44;4.30;1.00
38239;DHT22;24035;48.900;9.188;2023-02-25T03:34:17;4.30;1.00
38239;DHT22;24035;48.900;9.188;2023-02-25T03:36:58;4.30;1.00
38239;DHT22;24035;48.900;9.188;2023-02-25T03:39:28;4.30;1.00
38239;DHT22;24035;48.900;9.188;2023-02-25T03:41:58;4.30;1.00
38239;DHT22;24035;48.900;9.188;2023-02-25T03:44:34;4.30;1.00
38239;DHT22;24035;48.900;9.188;2023-02-25T03:47:03;4.30;1.00
38239;DHT22;24035;48.900;9.188;2023-02-25T03:49:36;4.30;1.00
38239;DHT22;24035;48.900;9.188;2023-02-25T03:52:06;4.20;1.00
38239;DHT22;24035;48.900;9.188;2023-02-25T03:54:36;4.20;1.00
38239;DHT22;24035;48.900;9.188;2023-02-25T03:57:02;4.10;1.00
38239;DHT22;24035;48.900;9.188;2023-02-25T03:59:28;4.10;99.90
38239;DHT22;24035;48.900;9.188;2023-02-25T04:01:55;4.10;99.90
38239;DHT22;24035;48.900;9.188;2023-02-25T04:04:22;4.00;99.90
38239;DHT22;24035;48.900;9.188;2023-02-25T04:06:48;3.90;99.90
38239;DHT22;24035;48.900;9.188;2023-02-25T04:09:14;3.90;99.90
38239;DHT22;24035;48.900;9.188;2023-02-25T04:11:42;3.90;99.90
38239;DHT22;24035;48.900;9.188;2023-02-25T04:14:19;3.80;99.90
38239;DHT22;24035;48.900;9.188;2023-02-25T04:16:45;3.80;99.90
38239;DHT22;24035;48.900;9.188;2023-02-25T04:19:14;3.80;99.90
38239;DHT22;24035;48.900;9.188;2023-02-25T04:21:40;3.80;99.90
38239;DHT22;24035;48.900;9.188;2023-02-25T04:24:09;3.70;99.90
38239;DHT22;24035;48.900;9.188;2023-02-25T04:26:37;3.80;99.90
38239;DHT22;24035;48.900;9.188;2023-02-25T04:29:09;3.70;99.90
38239;DHT22;24035;48.900;9.188;2023-02-25T04:31:38;3.80;99.90
38239;DHT22;24035;48.900;9.188;2023-02-25T04:34:04;3.70;99.90
38239;DHT22;24035;48.900;9.188;2023-02-25T04:36:37;3.70;99.90
38239;DHT22;24035;48.900;9.188;2023-02-25T04:39:04;3.70;99.90
38239;DHT22;24035;48.900;9.188;2023-02-25T04:41:53;3.70;99.90
38239;DHT22;24035;48.900;9.188;2023-02-25T04:44:21;3.80;99.90
38239;DHT22;24035;48.900;9.188;2023-02-25T04:47:08;3.80;99.90
38239;DHT22;24035;48.900;9.188;2023-02-25T04:49:34;3.80;99.90
38239;DHT22;24035;48.900;9.188;2023-02-25T04:52:13;3.80;46.80
38239;DHT22;24035;48.900;9.188;2023-02-25T04:54:42;3.90;1.00
38239;DHT22;24035;48.900;9.188;2023-02-25T04:57:10;3.90;48.90
38239;DHT22;24035;48.900;9.188;2023-02-25T04:59:36;3.90;5.60
38239;DHT22;24035;48.900;9.188;2023-02-25T05:02:03;3.90;1.00
38239;DHT22;24035;48.900;9.188;2023-02-25T05:04:29;4.00;1.00
38239;DHT22;24035;48.900;9.188;2023-02-25T05:06:54;4.00;1.00
38239;DHT22;24035;48.900;9.188;2023-02-25T05:09:20;4.10;1.00
38239;DHT22;24035;48.900;9.188;2023-02-25T05:11:46;4.10;1.00
38239;DHT22;24035;48.900;9.188;2023-02-25T05:14:11;4.00;1.00
38239;DHT22;24035;48.900;9.188;2023-02-25T05:16:37;4.00;1.00
38239;DHT22;24035;48.900;9.188;2023-02-25T05:19:03;4.00;1.00
38239;DHT22;24035;48.900;9.188;2023-02-25T05:21:29;4.00;1.00
38239;DHT22;24035;48.900;9.188;2023-02-25T05:23:55;4.00;1.00
38239;DHT22;24035;48.900;9.188;2023-02-25T05:26:22;4.00;1.00
38239;DHT22;24035;48.900;9.188;2023-02-25T05:28:54;4.00;1.00
38239;DHT22;24035;48.900;9.188;2023-02-25T05:31:21;4.00;1.00
38239;DHT22;24035;48.900;9.188;2023-02-25T05:33:47;4.00;1.00
38239;DHT22;24035;48.900;9.188;2023-02-25T05:36:15;4.00;1.00
38239;DHT22;24035;48.900;9.188;2023-02-25T05:38:41;4.00;1.00
38239;DHT22;24035;48.900;9.188;2023-02-25T05:41:08;4.00;1.00
38239;DHT22;24035;48.900;9.188;2023-02-25T05:43:35;4.00;1.00
38239;DHT22;24035;48.900;9.188;2023-02-25T05:46:01;4.00;1.00
38239;DHT22;24035;48.900;9.188;2023-02-25T05:48:27;4.00;1.00
38239;DHT22;24035;48.900;9.188;2023-02-25T05:51:03;4.00;1.00
38239;DHT22;24035;48.900;9.188;2023-02-25T05:53:30;4.00;1.00
38239;DHT22;24035;48.900;9.188;2023-02-25T05:55:56;4.00;1.00
38239;DHT22;24035;48.900;9.188;2023-02-25T05:58:22;3.90;1.00
38239;DHT22;24035;48.900;9.188;2023-02-25T06:00:48;3.90;1.00
38239;DHT22;24035;48.900;9.188;2023-02-25T06:03:14;3.90;1.00
38239;DHT22;24035;48.900;9.188;2023-02-25T06:05:40;4.00;1.00
38239;DHT22;24035;48.900;9.188;2023-02-25T06:08:07;4.00;1.00
38239;DHT22;24035;48.900;9.188;2023-02-25T06:10:33;4.00;1.00
38239;DHT22;24035;48.900;9.188;2023-02-25T06:13:06;4.00;1.00
38239;DHT22;24035;48.900;9.188;2023-02-25T06:15:31;4.00;1.00
38239;DHT22;24035;48.900;9.188;2023-02-25T06:17:57;4.00;1.00
38239;DHT22;24035;48.900;9.188;2023-02-25T06:20:23;4.00;1.00
38239;DHT22;24035;48.900;9.188;2023-02-25T06:22:50;4.00;1.00
38239;DHT22;24035;48.900;9.188;2023-02-25T06:25:16;4.00;1.00
38239;DHT22;24035;48.900;9.188;2023-02-25T06:27:42;4.10;1.00
38239;DHT22;24035;48.900;9.188;2023-02-25T06:30:09;4.10;1.00
38239;DHT22;24035;48.900;9.188;2023-02-25T06:32:34;4.10;1.00
38239;DHT22;24035;48.900;9.188;2023-02-25T06:35:00;4.10;1.00
38239;DHT22;24035;48.900;9.188;2023-02-25T06:37:26;4.10;1.00
38239;DHT22;24035;48.900;9.188;2023-02-25T06:39:52;4.10;1.00
38239;DHT22;24035;48.900;9.188;2023-02-25T06:42:18;4.10;1.00
38239;DHT22;24035;48.900;9.188;2023-02-25T06:44:43;4.10;1.00
38239;DHT22;24035;48.900;9.188;2023-02-25T06:47:09;4.10;1.00
38239;DHT22;24035;48.900;9.188;2023-02-25T06:49:35;4.20;1.00
38239;DHT22;24035;48.900;9.188;2023-02-25T06:52:00;4.20;1.00
38239;DHT22;24035;48.900;9.188;2023-02-25T06:54:26;4.10;1.00
38239;DHT22;24035;48.900;9.188;2023-02-25T06:56:53;4.30;1.00
38239;DHT22;24035;48.900;9.188;2023-02-25T06:59:19;4.30;1.00
38239;DHT22;24035;48.900;9.188;2023-02-25T07:01:45;4.30;1.00
38239;DHT22;24035;48.900;9.188;2023-02-25T07:04:15;4.30;1.00
38239;DHT22;24035;48.900;9.188;2023-02-25T07:06:41;4.30;1.00
38239;DHT22;24035;48.900;9.188;2023-02-25T07:09:06;4.40;1.00
38239;DHT22;24035;48.900;9.188;2023-02-25T07:11:33;4.50;1.00
38239;DHT22;24035;48.900;9.188;2023-02-25T07:14:01;4.50;1.00
38239;DHT22;24035;48.900;9.188;2023-02-25T07:16:27;4.50;1.00
38239;DHT22;24035;48.900;9.188;2023-02-25T07:18:55;4.50;1.00
38239;DHT22;24035;48.900;9.188;2023-02-25T07:21:21;4.40;1.00
38239;DHT22;24035;48.900;9.188;2023-02-25T07:23:48;4.30;1.00
38239;DHT22;24035;48.900;9.188;2023-02-25T07:26:14;4.20;1.00
38239;DHT22;24035;48.900;9.188;2023-02-25T07:28:41;4.00;1.00
38239;DHT22;24035;48.900;9.188;2023-02-25T07:31:15;3.90;1.00
38239;DHT22;24035;48.900;9.188;2023-02-25T07:33:42;3.80;1.00
38239;DHT22;24035;48.900;9.188;2023-02-25T07:36:09;3.90;1.00
38239;DHT22;24035;48.900;9.188;2023-02-25T07:38:35;4.00;1.00
38239;DHT22;24035;48.900;9.188;2023-02-25T07:41:20;4.00;1.00
38239;DHT22;24035;48.900;9.188;2023-02-25T07:43:46;4.10;1.00
38239;DHT22;24035;48.900;9.188;2023-02-25T07:46:12;4.30;1.00
38239;DHT22;24035;48.900;9.188;2023-02-25T07:48:38;4.40;1.00
38239;DHT22;24035;48.900;9.188;2023-02-25T07:51:09;4.60;1.00
38239;DHT22;24035;48.900;9.188;2023-02-25T07:53:35;4.70;1.00
38239;DHT22;24035;48.900;9.188;2023-02-25T07:56:01;4.80;1.00
38239;DHT22;24035;48.900;9.188;2023-02-25T07:58:27;5.00;1.00
38239;DHT22;24035;48.900;9.188;2023-02-25T08:00:53;5.10;1.00
38239;DHT22;24035;48.900;9.188;2023-02-25T08:03:19;5.20;1.00
38239;DHT22;24035;48.900;9.188;2023-02-25T08:05:49;5.30;1.00
38239;DHT22;24035;48.900;9.188;2023-02-25T08:08:15;5.40;1.00
38239;DHT22;24035;48.900;9.188;2023-02-25T08:10:40;5.50;99.90
38239;DHT22;24035;48.900;9.188;2023-02-25T08:13:07;5.40;99.90
38239;DHT22;24035;48.900;9.188;2023-02-25T08:15:32;5.10;99.90
38239;DHT22;24035;48.900;9.188;2023-02-25T08:17:58;5.10;99.90
38239;DHT22;24035;48.900;9.188;2023-02-25T08:20:24;5.10;99.90
38239;DHT22;24035;48.900;9.188;2023-02-25T08:22:49;5.00;99.90
38239;DHT22;24035;48.900;9.188;2023-02-25T08:25:15;5.10;99.90
38239;DHT22;24035;48.900;9.188;2023-02-25T08:27:41;5.20;99.90
38239;DHT22;24035;48.900;9.188;2023-02-25T08:30:09;5.30;99.90
38239;DHT22;24035;48.900;9.188;2023-02-25T08:32:35;5.20;99.90
38239;DHT22;24035;48.900;9.188;2023-02-25T08:35:01;5.00;99.90
38239;DHT22;24035;48.900;9.188;2023-02-25T08:37:27;5.20;99.90
38239;DHT22;24035;48.900;9.188;2023-02-25T08:39:55;5.20;99.90
38239;DHT22;24035;48.900;9.188;2023-02-25T08:42:22;5.30;99.90
38239;DHT22;24035;48.900;9.188;2023-02-25T08:44:48;5.40;99.90
38239;DHT22;24035;48.900;9.188;2023-02-25T08:47:14;5.50;99.90
38239;DHT22;24035;48.900;9.188;2023-02-25T08:49:41;5.50;99.90
38239;DHT22;24035;48.900;9.188;2023-02-25T08:52:10;5.40;99.90
38239;DHT22;24035;48.900;9.188;2023-02-25T08:54:39;5.40;99.90
38239;DHT22;24035;48.900;9.188;2023-02-25T08:57:04;5.50;99.90
38239;DHT22;24035;48.900;9.188;2023-02-25T08:59:30;5.40;99.90
38239;DHT22;24035;48.900;9.188;2023-02-25T09:02:01;5.30;99.90
38239;DHT22;24035;48.900;9.188;2023-02-25T09:04:27;5.40;99.90
38239;DHT22;24035;48.900;9.188;2023-02-25T09:06:53;5.30;99.90
38239;DHT22;24035;48.900;9.188;2023-02-25T09:09:20;5.40;99.90
38239;DHT22;24035;48.900;9.188;2023-02-25T09:11:47;5.50;99.90
38239;DHT22;24035;48.900;9.188;2023-02-25T09:14:13;5.50;99.90
38239;DHT22;24035;48.900;9.188;2023-02-25T09:16:39;5.50;99.90
38239;DHT22;24035;48.900;9.188;2023-02-25T09:19:05;5.50;99.90
38239;DHT22;24035;48.900;9.188;2023-02-25T09:21:31;5.40;99.90
38239;DHT22;24035;48.900;9.188;2023-02-25T09:23:58;5.50;99.90
38239;DHT22;24035;48.900;9.188;2023-02-25T09:26:24;5.60;99.90
38239;DHT22;24035;48.900;9.188;2023-02-25T09:28:50;5.70;99.90
38239;DHT22;24035;48.900;9.188;2023-02-25T09:31:16;5.60;99.90
38239;DHT22;24035;48.900;9.188;2023-02-25T09:33:43;5.50;99.90
38239;DHT22;24035;48.900;9.188;2023-02-25T09:36:11;5.60;99.90
38239;DHT22;24035;48.900;9.188;2023-02-25T09:38:39;5.50;99.90
38239;DHT22;24035;48.900;9.188;2023-02-25T09:46:24;5.90;99.90
38239;DHT22;24035;48.900;9.188;2023-02-25T09:49:07;6.20;99.90
38239;DHT22;24035;48.900;9.188;2023-02-25T09:51:39;6.40;99.90
38239;DHT22;24035;48.900;9.188;2023-02-25T09:56:45;6.50;99.90
38239;DHT22;24035;48.900;9.188;2023-02-25T09:59:16;6.20;99.90
38239;DHT22;24035;48.900;9.188;2023-02-25T10:01:52;5.80;99.90
38239;DHT22;24035;48.900;9.188;2023-02-25T10:04:54;5.70;99.90
38239;DHT22;24035;48.900;9.188;2023-02-25T10:07:27;5.70;99.90
38239;DHT22;24035;48.900;9.188;2023-02-25T10:10:12;5.80;99.90
38239;DHT22;24035;48.900;9.188;2023-02-25T10:12:49;5.70;99.90
38239;DHT22;24035;48.900;9.188;2023-02-25T10:18:32;5.70;99.90
38239;DHT22;24035;48.900;9.188;2023-02-25T10:21:41;5.70;99.90
38239;DHT22;24035;48.900;9.188;2023-02-25T10:24:26;5.80;99.90
38239;DHT22;24035;48.900;9.188;2023-02-25T10:27:05;6.00;99.90
38239;DHT22;24035;48.900;9.188;2023-02-25T10:29:39;6.00;99.90
38239;DHT22;24035;48.900;9.188;2023-02-25T10:32:17;5.90;99.90
38239;DHT22;24035;48.900;9.188;2023-02-25T10:34:43;5.70;99.90
38239;DHT22;24035;48.900;9.188;2023-02-25T10:37:18;5.70;99.90
38239;DHT22;24035;48.900;9.188;2023-02-25T10:39:45;6.00;99.90
38239;DHT22;24035;48.900;9.188;2023-02-25T10:42:14;6.50;99.90
38239;DHT22;24035;48.900;9.188;2023-02-25T10:44:40;6.40;99.90
38239;DHT22;24035;48.900;9.188;2023-02-25T10:47:12;6.30;99.90
38239;DHT22;24035;48.900;9.188;2023-02-25T10:49:39;6.10;99.90
38239;DHT22;24035;48.900;9.188;2023-02-25T10:52:14;6.30;99.90
38239;DHT22;24035;48.900;9.188;2023-02-25T10:54:49;6.30;99.90
38239;DHT22;24035;48.900;9.188;2023-02-25T10:57:23;6.50;99.90
38239;DHT22;24035;48.900;9.188;2023-02-25T11:00:02;7.00;99.90
38239;DHT22;24035;48.900;9.188;2023-02-25T11:02:30;7.20;99.90
38239;DHT22;24035;48.900;9.188;2023-02-25T11:04:57;7.00;99.90
38239;DHT22;24035;48.900;9.188;2023-02-25T11:07:29;6.60;99.90
38239;DHT22;24035;48.900;9.188;2023-02-25T11:10:14;6.20;99.90
38239;DHT22;24035;48.900;9.188;2023-02-25T11:12:43;6.00;99.90
38239;DHT22;24035;48.900;9.188;2023-02-25T11:18:00;6.20;99.90
38239;DHT22;24035;48.900;9.188;2023-02-25T11:20:28;6.20;99.90
38239;DHT22;24035;48.900;9.188;2023-02-25T11:22:56;6.30;99.90
38239;DHT22;24035;48.900;9.188;2023-02-25T11:25:34;6.30;99.90
38239;DHT22;24035;48.900;9.188;2023-02-25T11:28:01;6.20;99.90
38239;DHT22;24035;48.900;9.188;2023-02-25T11:30:37;6.10;99.90
38239;DHT22;24035;48.900;9.188;2023-02-25T11:33:21;6.00;99.90
38239;DHT22;24035;48.900;9.188;2023-02-25T11:35:57;6.20;99.90
38239;DHT22;24035;48.900;9.188;2023-02-25T11:38:36;6.50;99.90
38239;DHT22;24035;48.900;9.188;2023-02-25T11:41:02;6.80;99.90
38239;DHT22;24035;48.900;9.188;2023-02-25T11:43:38;6.60;99.90
38239;DHT22;24035;48.900;9.188;2023-02-25T11:46:06;6.40;99.90
38239;DHT22;24035;48.900;9.188;2023-02-25T11:56:30;6.20;99.90
38239;DHT22;24035;48.900;9.188;2023-02-25T11:59:22;6.20;99.90
38239;DHT22;24035;48.900;9.188;2023-02-25T12:07:57;6.20;99.90
38239;DHT22;24035;48.900;9.188;2023-02-25T12:24:46;4.90;1.00
38239;DHT22;24035;48.900;9.188;2023-02-25T12:27:49;4.70;1.00
38239;DHT22;24035;48.900;9.188;2023-02-25T12:33:04;4.50;1.00
38239;DHT22;24035;48.900;9.188;2023-02-25T12:35:45;4.50;1.00
38239;DHT22;24035;48.900;9.188;2023-02-25T12:43:45;4.60;1.00
38239;DHT22;24035;48.900;9.188;2023-02-25T12:49:53;4.90;1.00
38239;DHT22;24035;48.900;9.188;2023-02-25T12:54:57;5.10;1.00
38239;DHT22;24035;48.900;9.188;2023-02-25T12:57:41;5.10;1.00
38239;DHT22;24035;48.900;9.188;2023-02-25T13:00:32;5.10;1.00
38239;DHT22;24035;48.900;9.188;2023-02-25T13:03:33;5.30;1.00
38239;DHT22;24035;48.900;9.188;2023-02-25T13:25:56;5.40;1.00
38239;DHT22;24035;48.900;9.188;2023-02-25T13:28:45;5.50;1.00
38239;DHT22;24035;48.900;9.188;2023-02-25T13:39:50;5.00;1.00
38239;DHT22;24035;48.900;9.188;2023-02-25T13:42:38;4.90;1.00
38239;DHT22;24035;48.900;9.188;2023-02-25T13:50:48;5.00;1.00
38239;DHT22;24035;48.900;9.188;2023-02-25T13:56:41;5.20;1.00
38239;DHT22;24035;48.900;9.188;2023-02-25T13:59:30;5.30;1.00
38239;DHT22;24035;48.900;9.188;2023-02-25T14:18:37;6.80;99.90
38239;DHT22;24035;48.900;9.188;2023-02-25T14:24:11;6.50;99.90
38239;DHT22;24035;48.900;9.188;2023-02-25T14:29:27;6.20;99.90
38239;DHT22;24035;48.900;9.188;2023-02-25T14:35:23;6.20;99.90
38239;DHT22;24035;48.900;9.188;2023-02-25T14:46:36;6.20;99.90
38239;DHT22;24035;48.900;9.188;2023-02-25T14:51:48;6.40;99.90
38239;DHT22;24035;48.900;9.188;2023-02-25T15:02:38;6.10;99.90
38239;DHT22;24035;48.900;9.188;2023-02-25T15:10:47;6.40;99.90
38239;DHT22;24035;48.900;9.188;2023-02-25T15:13:28;6.60;99.90
38239;DHT22;24035;48.900;9.188;2023-02-25T15:16:27;6.70;99.90
38239;DHT22;24035;48.900;9.188;2023-02-25T15:23:56;6.60;99.90
38239;DHT22;24035;48.900;9.188;2023-02-25T15:26:26;6.60;99.90
38239;DHT22;24035;48.900;9.188;2023-02-25T15:29:03;6.60;99.90
38239;DHT22;24035;48.900;9.188;2023-02-25T15:31:31;6.60;99.90
38239;DHT22;24035;48.900;9.188;2023-02-25T15:36:46;6.20;99.90
38239;DHT22;24035;48.900;9.188;2023-02-25T15:42:05;4.70;96.70
38239;DHT22;24035;48.900;9.188;2023-02-25T15:44:34;4.30;1.00
38239;DHT22;24035;48.900;9.188;2023-02-25T15:49:36;3.70;99.90
38239;DHT22;24035;48.900;9.188;2023-02-25T15:52:05;3.80;99.90
38239;DHT22;24035;48.900;9.188;2023-02-25T15:59:53;3.40;1.00
38239;DHT22;24035;48.900;9.188;2023-02-25T16:07:33;3.40;99.90
38239;DHT22;24035;48.900;9.188;2023-02-25T16:12:41;3.50;1.00
38239;DHT22;24035;48.900;9.188;2023-02-25T16:17:46;3.60;1.00
38239;DHT22;24035;48.900;9.188;2023-02-25T16:22:56;3.60;1.00
38239;DHT22;24035;48.900;9.188;2023-02-25T16:28:46;3.50;99.90
38239;DHT22;24035;48.900;9.188;2023-02-25T16:31:28;3.50;63.50
38239;DHT22;24035;48.900;9.188;2023-02-25T16:34:04;3.60;1.00
38239;DHT22;24035;48.900;9.188;2023-02-25T16:39:30;3.70;1.00
38239;DHT22;24035;48.900;9.188;2023-02-25T16:42:04;3.80;1.00
38239;DHT22;24035;48.900;9.188;2023-02-25T16:44:37;3.80;1.00
38239;DHT22;24035;48.900;9.188;2023-02-25T16:50:10;3.90;1.00
38239;DHT22;24035;48.900;9.188;2023-02-25T16:52:40;4.00;99.90
38239;DHT22;24035;48.900;9.188;2023-02-25T16:55:22;4.00;99.90
38239;DHT22;24035;48.900;9.188;2023-02-25T17:00:55;3.90;99.90
38239;DHT22;24035;48.900;9.188;2023-02-25T17:03:24;3.80;99.90
38239;DHT22;24035;48.900;9.188;2023-02-25T17:08:28;3.80;99.90
38239;DHT22;24035;48.900;9.188;2023-02-25T17:10:56;3.80;99.90
38239;DHT22;24035;48.900;9.188;2023-02-25T17:13:29;3.90;99.90
38239;DHT22;24035;48.900;9.188;2023-02-25T17:15:56;3.90;99.90
38239;DHT22;24035;48.900;9.188;2023-02-25T17:21:27;3.40;1.00
38239;DHT22;24035;48.900;9.188;2023-02-25T17:23:59;2.80;1.00
38239;DHT22;24035;48.900;9.188;2023-02-25T17:26:26;2.40;99.90
38239;DHT22;24035;48.900;9.188;2023-02-25T17:28:55;2.20;1.00
38239;DHT22;24035;48.900;9.188;2023-02-25T17:31:25;2.00;1.00
38239;DHT22;24035;48.900;9.188;2023-02-25T17:33:59;1.80;1.00
38239;DHT22;24035;48.900;9.188;2023-02-25T17:36:31;1.80;52.00
38239;DHT22;24035;48.900;9.188;2023-02-25T17:39:05;1.70;99.90
38239;DHT22;24035;48.900;9.188;2023-02-25T17:41:33;1.60;1.00
38239;DHT22;24035;48.900;9.188;2023-02-25T17:43:59;1.50;1.00
38239;DHT22;24035;48.900;9.188;2023-02-25T17:46:37;1.30;99.90
38239;DHT22;24035;48.900;9.188;2023-02-25T17:49:30;1.20;1.00
38239;DHT22;24035;48.900;9.188;2023-02-25T17:52:03;1.10;61.60
38239;DHT22;24035;48.900;9.188;2023-02-25T17:54:33;1.00;99.90
38239;DHT22;24035;48.900;9.188;2023-02-25T17:57:04;1.00;1.00
38239;DHT22;24035;48.900;9.188;2023-02-25T17:59:36;1.00;1.00
38239;DHT22;24035;48.900;9.188;2023-02-25T18:02:39;1.00;99.90
38239;DHT22;24035;48.900;9.188;2023-02-25T18:07:40;1.00;1.00
38239;DHT22;24035;48.900;9.188;2023-02-25T18:12:57;1.00;1.00
38239;DHT22;24035;48.900;9.188;2023-02-25T18:15:26;1.00;1.00
38239;DHT22;24035;48.900;9.188;2023-02-25T18:18:03;1.00;99.90
38239;DHT22;24035;48.900;9.188;2023-02-25T18:20:37;1.00;99.90
38239;DHT22;24035;48.900;9.188;2023-02-25T18:23:17;1.10;99.90
38239;DHT22;24035;48.900;9.188;2023-02-25T18:25:47;1.10;99.90
38239;DHT22;24035;48.900;9.188;2023-02-25T18:28:20;1.10;99.90
38239;DHT22;24035;48.900;9.188;2023-02-25T18:30:46;1.10;99.90
38239;DHT22;24035;48.900;9.188;2023-02-25T18:33:13;1.20;99.90
38239;DHT22;24035;48.900;9.188;2023-02-25T18:35:41;1.20;99.90
38239;DHT22;24035;48.900;9.188;2023-02-25T18:38:20;1.10;97.80
38239;DHT22;24035;48.900;9.188;2023-02-25T18:40:47;1.20;63.20
38239;DHT22;24035;48.900;9.188;2023-02-25T18:43:15;1.20;1.00
38239;DHT22;24035;48.900;9.188;2023-02-25T18:45:42;1.20;1.00
38239;DHT22;24035;48.900;9.188;2023-02-25T18:48:07;1.20;1.00
38239;DHT22;24035;48.900;9.188;2023-02-25T18:50:33;1.10;99.90
38239;DHT22;24035;48.900;9.188;2023-02-25T18:52:59;1.10;99.90
38239;DHT22;24035;48.900;9.188;2023-02-25T18:55:30;1.10;76.50
38239;DHT22;24035;48.900;9.188;2023-02-25T18:57:56;1.10;12.10
38239;DHT22;24035;48.900;9.188;2023-02-25T19:00:26;1.10;1.00
38239;DHT22;24035;48.900;9.188;2023-02-25T19:02:53;1.20;1.00
38239;DHT22;24035;48.900;9.188;2023-02-25T19:05:22;1.10;1.00
38239;DHT22;24035;48.900;9.188;2023-02-25T19:07:48;1.10;1.00
38239;DHT22;24035;48.900;9.188;2023-02-25T19:10:20;1.10;1.00
38239;DHT22;24035;48.900;9.188;2023-02-25T19:12:50;1.10;99.90
38239;DHT22;24035;48.900;9.188;2023-02-25T19:15:22;1.10;99.90
38239;DHT22;24035;48.900;9.188;2023-02-25T19:17:48;1.10;99.90
38239;DHT22;24035;48.900;9.188;2023-02-25T19:20:15;1.10;99.90
38239;DHT22;24035;48.900;9.188;2023-02-25T19:22:43;1.00;99.90
38239;DHT22;24035;48.900;9.188;2023-02-25T19:25:24;1.00;99.90
38239;DHT22;24035;48.900;9.188;2023-02-25T19:27:51;1.00;1.00
38239;DHT22;24035;48.900;9.188;2023-02-25T19:30:20;0.90;99.90
38239;DHT22;24035;48.900;9.188;2023-02-25T19:32:46;0.80;1.00
38239;DHT22;24035;48.900;9.188;2023-02-25T19:35:12;0.80;1.00
38239;DHT22;24035;48.900;9.188;2023-02-25T19:37:41;0.80;1.00
38239;DHT22;24035;48.900;9.188;2023-02-25T19:40:12;0.90;1.00
38239;DHT22;24035;48.900;9.188;2023-02-25T19:42:40;0.80;1.00
38239;DHT22;24035;48.900;9.188;2023-02-25T19:45:09;0.70;1.00
38239;DHT22;24035;48.900;9.188;2023-02-25T19:47:35;0.70;1.00
38239;DHT22;24035;48.900;9.188;2023-02-25T19:50:02;0.70;70.30
38239;DHT22;24035;48.900;9.188;2023-02-25T19:52:31;0.70;99.90
38239;DHT22;24035;48.900;9.188;2023-02-25T19:55:00;0.60;39.10
38239;DHT22;24035;48.900;9.188;2023-02-25T19:57:26;0.70;99.90
38239;DHT22;24035;48.900;9.188;2023-02-25T19:59:52;0.70;99.90
38239;DHT22;24035;48.900;9.188;2023-02-25T20:02:18;0.80;1.00
38239;DHT22;24035;48.900;9.188;2023-02-25T20:04:45;0.80;1.00
38239;DHT22;24035;48.900;9.188;2023-02-25T20:07:11;0.90;1.00
38239;DHT22;24035;48.900;9.188;2023-02-25T20:09:37;0.90;1.00
38239;DHT22;24035;48.900;9.188;2023-02-25T20:12:03;0.90;99.90
38239;DHT22;24035;48.900;9.188;2023-02-25T20:14:28;0.90;1.00
38239;DHT22;24035;48.900;9.188;2023-02-25T20:16:57;0.80;99.90